»·PEaware :: SWA1451 KLAS-KSAN

SWA1451 :: KLAS-KSAN

FLIGHT INFORMATION

Flight Status: Arrived
Operator:
Southwest Airlines
More flights by this operator :: More flights under this callsign
Pilot: Nick B. (16803)
Aircraft: BOEING 737-700
(B737)
More flights by this aircraft type
Origin: KLAS McCarran Intl
United States
Destination: KSAN San Diego Intl-Lindbergh
United States
More flights between these airports :: More routes between these airports
Route: +BOACH8 LVELL MOMAR LUCKI1
File this flight plan on PilotEdge
Remarks:
Altitude:
(Current/Filed)
29,000ft
Speed:
(Current/Filed)
450kts
Departed: 04-Oct-17 05:57 PM
Arrived: 04-Oct-17 06:49 PM
Distance/Time
Traveled:
225nm/0:51
Distance/Time
To Go:
Arrived

Flight Plot

Page will automatically refresh every two minutes.

Flight plan parsing failed; only flown route is shown


Map Options




Map Legend


Flown Route
Filed Route
Departure Airport
Arrival Airport
Navaid (VOR, NDB)
Fix

Horizontal Profiles

Position Reports

Time Latitude Longitude Heading Altitude Ground
Speed
04-Oct-17 17:45 36.083245 -115.150535 245 2189ft 0kts
04-Oct-17 17:46 36.083245 -115.150535 245 2189ft 0kts
04-Oct-17 17:47 36.083245 -115.150535 245 2189ft 0kts
04-Oct-17 17:48 36.083245 -115.150535 245 2189ft 0kts
04-Oct-17 17:49 36.083245 -115.150535 245 2189ft 0kts
04-Oct-17 17:50 36.083245 -115.150535 245 2189ft 0kts
04-Oct-17 17:51 36.083245 -115.150535 245 2189ft 0kts
04-Oct-17 17:52 36.083245 -115.150535 245 2189ft 0kts
04-Oct-17 17:53 36.083245 -115.150535 245 2189ft 0kts
04-Oct-17 17:54 36.083342 -115.150271 245 2189ft 2kts
04-Oct-17 17:55 36.083444 -115.149994 245 2189ft 0kts
04-Oct-17 17:56 36.083444 -115.149994 245 2189ft 0kts
04-Oct-17 17:57 36.083444 -115.149994 245 2189ft 0kts
04-Oct-17 17:58 36.083444 -115.149994 245 2189ft 0kts
04-Oct-17 17:59 36.081136 -115.148474 163 2189ft 25kts
04-Oct-17 18:00 36.077569 -115.142283 88 2189ft 26kts
04-Oct-17 18:01 36.077434 -115.128994 85 2189ft 46kts
04-Oct-17 18:02 36.077239 -115.121184 184 2189ft 0kts
04-Oct-17 18:03 36.076394 -115.122007 268 2189ft 19kts
04-Oct-17 18:04 36.075753 -115.166332 266 4510ft 145kts
04-Oct-17 18:05 36.070225 -115.213253 261 6508ft 188kts
04-Oct-17 18:06 36.065634 -115.293312 245 7130ft 273kts
04-Oct-17 18:07 35.999040 -115.322056 164 7081ft 289kts
04-Oct-17 18:08 35.923166 -115.305771 190 8751ft 280kts
04-Oct-17 18:09 35.841955 -115.314191 179 12032ft 325kts
04-Oct-17 18:10 35.747998 -115.302745 177 15398ft 347kts
04-Oct-17 18:11 35.649919 -115.295092 186 18662ft 358kts
04-Oct-17 18:12 35.548608 -115.299783 186 21657ft 371kts
04-Oct-17 18:13 35.443292 -115.303967 187 24144ft 384kts
04-Oct-17 18:14 35.335379 -115.308232 187 26406ft 393kts
04-Oct-17 18:15 35.224980 -115.312551 188 28304ft 400kts
04-Oct-17 18:16 35.114553 -115.316890 188 29954ft 399kts
04-Oct-17 18:17 35.005042 -115.321203 189 29973ft 391kts
04-Oct-17 18:18 34.896025 -115.325461 188 29958ft 391kts
04-Oct-17 18:19 34.787843 -115.333333 196 29972ft 385kts
04-Oct-17 18:20 34.687127 -115.372299 204 29994ft 381kts
04-Oct-17 18:21 34.587259 -115.415789 204 30004ft 381kts
04-Oct-17 18:22 34.487495 -115.459304 204 30022ft 381kts
04-Oct-17 18:23 34.387618 -115.502711 204 30023ft 383kts
04-Oct-17 18:24 34.291153 -115.555040 214 30045ft 377kts
04-Oct-17 18:25 34.213659 -115.636306 243 30060ft 376kts
04-Oct-17 18:26 34.182465 -115.758153 251 30060ft 379kts
04-Oct-17 18:27 34.155567 -115.881253 252 30087ft 380kts
04-Oct-17 18:28 34.088303 -115.970008 198 30074ft 398kts
04-Oct-17 18:29 33.975690 -115.968725 184 29262ft 401kts
04-Oct-17 18:30 33.865057 -115.963097 184 28263ft 396kts
04-Oct-17 18:31 33.755144 -115.957258 183 27258ft 392kts
04-Oct-17 18:32 33.647010 -115.951492 183 26259ft 387kts
04-Oct-17 18:33 33.541584 -115.951767 201 24424ft 365kts
04-Oct-17 18:34 33.469326 -116.030859 230 22530ft 353kts
04-Oct-17 18:35 33.410844 -116.124370 234 20952ft 348kts
04-Oct-17 18:36 33.355605 -116.218834 232 19411ft 345kts
04-Oct-17 18:37 33.278470 -116.284140 208 17880ft 341kts
04-Oct-17 18:38 33.194412 -116.333878 208 16379ft 335kts
04-Oct-17 18:39 33.110762 -116.382824 208 14919ft 332kts
04-Oct-17 18:40 33.028638 -116.430697 208 13455ft 324kts
04-Oct-17 18:41 32.959318 -116.490276 221 12724ft 272kts
04-Oct-17 18:42 32.900959 -116.549705 220 12317ft 272kts
04-Oct-17 18:43 32.852835 -116.598190 221 11028ft 267kts
04-Oct-17 18:44 32.796753 -116.654657 221 9507ft 261kts
04-Oct-17 18:45 32.750904 -116.737773 246 7307ft 275kts
04-Oct-17 18:46 32.722726 -116.807125 242 5727ft 282kts
04-Oct-17 18:47 32.682001 -116.901286 242 4431ft 260kts
04-Oct-17 18:48 32.677903 -116.976054 295 3979ft 227kts
04-Oct-17 18:49 32.695517 -117.033015 287 3012ft 212kts
04-Oct-17 18:50 32.710511 -117.094628 287 1775ft 175kts
04-Oct-17 18:51 32.722488 -117.144011 286 809ft 136kts
04-Oct-17 18:52 32.732336 -117.184081 285 23ft 102kts
04-Oct-17 18:53 32.733252 -117.191629 190 22ft 0kts
04-Oct-17 18:54 32.732441 -117.192292 249 22ft 17kts
04-Oct-17 18:55 32.732315 -117.195889 303 22ft 2kts
04-Oct-17 18:56 32.732384 -117.196008 306 22ft 0kts
04-Oct-17 18:57 32.732384 -117.196008 306 22ft 0kts
04-Oct-17 18:58 32.732384 -117.196008 306 22ft 0kts
04-Oct-17 18:59 32.732384 -117.196008 306 22ft 0kts
04-Oct-17 19:00 32.732384 -117.196008 306 22ft 0kts
04-Oct-17 19:01 32.732384 -117.196008 306 22ft 0kts
04-Oct-17 19:02 32.732384 -117.196008 306 22ft 0kts
04-Oct-17 19:03 32.732384 -117.196008 306 22ft 0kts
04-Oct-17 19:04 32.732384 -117.196008 306 22ft 0kts
04-Oct-17 19:05 32.732384 -117.196008 306 22ft 0kts
04-Oct-17 19:06 32.732384 -117.196008 306 22ft 0kts
04-Oct-17 19:07 32.732384 -117.196008 306 22ft 0kts

Navigation Log

Ident Type
Flight plan parsing failed, navigation log unavailable